createdAt,value
2018-02-05T00:00:57.389Z,61.73
2018-02-05T00:03:23.311Z,62.37
2018-02-05T00:05:49.235Z,61.75
2018-02-05T00:08:15.165Z,61.45
2018-02-05T00:10:41.086Z,60.93
2018-02-05T00:13:07.007Z,60.50
2018-02-05T00:15:32.956Z,60.85
2018-02-05T00:17:58.887Z,59.91
2018-02-05T00:20:24.816Z,59.84
2018-02-05T00:22:50.765Z,60.18
2018-02-05T00:25:16.687Z,59.65
2018-02-05T00:27:42.639Z,59.83
2018-02-05T00:30:08.580Z,59.94
2018-02-05T00:32:34.507Z,61.01
2018-02-05T00:35:00.443Z,60.91
2018-02-05T00:37:26.405Z,61.03
2018-02-05T00:39:52.336Z,59.68
2018-02-05T00:42:18.269Z,59.89
2018-02-05T00:44:44.191Z,60.23
2018-02-05T00:47:10.117Z,59.99
2018-02-05T00:49:36.037Z,61.13
2018-02-05T00:52:01.973Z,60.50
2018-02-05T00:54:28.940Z,61.13
2018-02-05T00:56:54.863Z,62.87
2018-02-05T00:59:20.799Z,63.14
2018-02-05T01:01:46.743Z,62.04
2018-02-05T01:04:12.671Z,62.43
2018-02-05T01:06:38.593Z,63.55
2018-02-05T01:09:04.527Z,63.30
2018-02-05T01:11:30.471Z,62.40
2018-02-05T01:13:56.408Z,61.34
2018-02-05T01:16:22.332Z,61.41
2018-02-05T01:18:48.301Z,62.10
2018-02-05T01:21:14.231Z,62.36
2018-02-05T01:23:40.175Z,61.55
2018-02-05T01:26:06.112Z,61.08
2018-02-05T01:28:32.035Z,61.24
2018-02-05T01:30:57.980Z,60.84
2018-02-05T01:33:23.917Z,60.65
2018-02-05T01:35:49.845Z,60.48
2018-02-05T01:38:15.780Z,59.75
2018-02-05T01:40:41.709Z,59.21
2018-02-05T01:43:07.639Z,59.02
2018-02-05T01:45:33.566Z,60.06
2018-02-05T01:47:59.511Z,60.34
2018-02-05T01:50:25.448Z,60.38
2018-02-05T01:52:51.400Z,60.26
2018-02-05T01:55:17.319Z,59.71
2018-02-05T01:57:43.252Z,59.94
2018-02-05T02:00:09.169Z,59.59
2018-02-05T02:02:35.125Z,59.78
2018-02-05T02:05:01.178Z,59.36
2018-02-05T02:07:27.133Z,59.33
2018-02-05T02:09:53.049Z,59.82
2018-02-05T02:12:19.008Z,60.20
2018-02-05T02:14:44.942Z,60.99
2018-02-05T02:17:10.866Z,62.17
2018-02-05T02:19:36.797Z,63.33
2018-02-05T02:22:02.730Z,61.38
2018-02-05T02:24:28.681Z,61.60
2018-02-05T02:26:54.606Z,62.13
2018-02-05T02:29:20.548Z,62.30
2018-02-05T02:31:46.496Z,62.64
2018-02-05T02:34:12.438Z,62.89
2018-02-05T02:36:38.385Z,62.92
2018-02-05T02:39:04.312Z,62.86
2018-02-05T02:41:30.242Z,63.85
2018-02-05T02:43:56.156Z,63.96
2018-02-05T02:46:22.100Z,63.44
2018-02-05T02:48:48.020Z,63.87
2018-02-05T02:51:13.944Z,63.17
2018-02-05T02:53:39.864Z,61.96
2018-02-05T02:56:05.803Z,62.74
2018-02-05T02:58:31.731Z,63.59
2018-02-05T03:00:57.686Z,62.79
2018-02-05T03:03:23.620Z,62.53
2018-02-05T03:05:49.549Z,63.08
2018-02-05T03:08:15.493Z,63.27
2018-02-05T03:10:41.414Z,63.27
2018-02-05T03:13:07.350Z,63.28
2018-02-05T03:15:33.258Z,62.81
2018-02-05T03:17:59.234Z,62.11
2018-02-05T03:20:25.179Z,62.41
2018-02-05T03:22:51.094Z,61.98
2018-02-05T03:25:17.041Z,62.79
2018-02-05T03:27:42.983Z,63.45
2018-02-05T03:30:08.932Z,64.62
2018-02-05T03:32:34.866Z,64.35
2018-02-05T03:35:00.806Z,63.49
2018-02-05T03:37:26.738Z,63.68
2018-02-05T03:39:52.678Z,62.83
2018-02-05T03:42:18.600Z,62.77
2018-02-05T03:44:44.534Z,63.30
2018-02-05T03:47:10.454Z,63.87
2018-02-05T03:49:36.408Z,63.06
2018-02-05T03:52:02.336Z,63.27
2018-02-05T03:54:28.272Z,62.96
2018-02-05T03:56:54.190Z,62.83
2018-02-05T03:59:20.134Z,62.24
2018-02-05T04:01:46.077Z,62.46
2018-02-05T04:04:12.010Z,64.50
2018-02-05T04:06:37.948Z,64.30
2018-02-05T04:09:03.902Z,64.13
2018-02-05T04:11:29.826Z,65.33
2018-02-05T04:13:55.756Z,65.10
2018-02-05T04:16:21.779Z,63.70
2018-02-05T04:18:47.770Z,64.27
2018-02-05T04:21:13.710Z,65.40
2018-02-05T04:23:39.682Z,64.48
2018-02-05T04:26:05.614Z,64.53
2018-02-05T04:28:31.544Z,64.95
2018-02-05T04:30:57.616Z,65.23
2018-02-05T04:33:23.718Z,64.25
2018-02-05T04:35:49.740Z,65.37
2018-02-05T04:38:15.734Z,65.00
2018-02-05T04:40:41.715Z,65.85
2018-02-05T04:43:07.956Z,66.18
2018-02-05T04:45:33.972Z,66.06
2018-02-05T04:47:59.905Z,65.35
2018-02-05T04:50:25.840Z,65.07
2018-02-05T04:52:51.766Z,64.01
2018-02-05T04:55:17.754Z,64.07
2018-02-05T04:57:43.683Z,65.43
2018-02-05T05:00:09.615Z,66.01
2018-02-05T05:02:35.547Z,65.25
2018-02-05T05:05:01.482Z,65.16
2018-02-05T05:07:27.432Z,65.63
2018-02-05T05:09:53.389Z,64.79
2018-02-05T05:12:19.337Z,64.68
2018-02-05T05:14:45.294Z,64.20
2018-02-05T05:17:11.356Z,64.38
2018-02-05T05:19:37.289Z,64.86
2018-02-05T05:22:03.234Z,65.28
2018-02-05T05:24:29.189Z,65.88
2018-02-05T05:26:55.115Z,65.62
2018-02-05T05:29:21.051Z,66.09
2018-02-05T05:31:46.990Z,68.05
2018-02-05T05:34:12.944Z,66.01
2018-02-05T05:36:38.891Z,65.09
2018-02-05T05:39:04.873Z,64.17
2018-02-05T05:41:30.833Z,63.85
2018-02-05T05:43:56.774Z,64.08
2018-02-05T05:46:22.715Z,65.27
2018-02-05T05:48:48.646Z,66.52
2018-02-05T05:51:14.594Z,66.81
2018-02-05T05:53:40.534Z,66.95
2018-02-05T05:56:06.459Z,66.90
2018-02-05T05:58:32.422Z,67.70
2018-02-05T06:00:58.420Z,66.99
2018-02-05T06:03:24.371Z,65.93
2018-02-05T06:05:50.351Z,65.99
2018-02-05T06:08:16.317Z,66.04
2018-02-05T06:10:42.261Z,66.82
2018-02-05T06:13:08.229Z,67.55
2018-02-05T06:15:34.156Z,66.92
2018-02-05T06:18:00.178Z,67.03
2018-02-05T06:20:26.142Z,67.29
2018-02-05T06:22:52.071Z,68.36
2018-02-05T06:25:18.013Z,68.46
2018-02-05T06:27:43.956Z,69.27
2018-02-05T06:30:09.877Z,67.85
2018-02-05T06:32:35.803Z,66.63
2018-02-05T06:35:01.717Z,69.17
2018-02-05T06:37:27.644Z,68.67
2018-02-05T06:39:53.579Z,68.42
2018-02-05T06:42:19.519Z,67.66
2018-02-05T06:44:45.463Z,67.61
2018-02-05T06:47:11.390Z,68.15
2018-02-05T06:49:37.330Z,68.08
2018-02-05T06:52:03.259Z,67.74
2018-02-05T06:54:29.199Z,67.73
2018-02-05T06:56:55.147Z,67.69
2018-02-05T06:59:21.075Z,67.21
2018-02-05T07:01:47.031Z,68.42
2018-02-05T07:04:12.957Z,67.11
2018-02-05T07:06:38.883Z,68.93
2018-02-05T07:09:04.803Z,69.17
2018-02-05T07:11:30.727Z,69.79
2018-02-05T07:13:56.669Z,67.99
2018-02-05T07:16:22.593Z,68.07
2018-02-05T07:18:48.505Z,67.13
2018-02-05T07:21:14.435Z,67.48
2018-02-05T07:23:40.374Z,68.17
2018-02-05T07:26:06.308Z,67.25
2018-02-05T07:28:32.259Z,67.72
2018-02-05T07:30:58.198Z,67.77
2018-02-05T07:33:24.129Z,69.48
2018-02-05T07:35:50.061Z,68.29
2018-02-05T07:38:16.007Z,67.64
2018-02-05T07:40:41.942Z,67.92
2018-02-05T07:43:07.859Z,67.76
2018-02-05T07:45:33.788Z,68.15
2018-02-05T07:47:59.801Z,65.83
2018-02-05T07:50:25.727Z,66.35
2018-02-05T07:52:51.665Z,67.44
2018-02-05T07:55:17.585Z,67.44
2018-02-05T07:57:43.524Z,65.82
2018-02-05T08:00:09.461Z,64.13
2018-02-05T08:02:35.773Z,64.53
2018-02-05T08:05:01.761Z,65.41
2018-02-05T08:07:27.799Z,64.02
2018-02-05T08:09:53.737Z,64.31
2018-02-05T08:12:19.767Z,64.29
2018-02-05T08:14:45.713Z,64.45
2018-02-05T08:17:11.639Z,64.34
2018-02-05T08:19:37.577Z,65.35
2018-02-05T08:22:03.511Z,64.69
2018-02-05T08:24:29.465Z,66.04
2018-02-05T08:26:55.399Z,65.49
2018-02-05T08:29:21.340Z,66.43
2018-02-05T08:31:47.274Z,65.69
2018-02-05T08:34:13.213Z,65.07
2018-02-05T08:36:39.139Z,64.82
2018-02-05T08:39:05.074Z,64.35
2018-02-05T08:41:31.021Z,64.33
2018-02-05T08:43:56.954Z,65.00
2018-02-05T08:46:22.873Z,64.96
2018-02-05T08:48:48.798Z,65.29
2018-02-05T08:51:14.738Z,64.90
2018-02-05T08:53:40.662Z,64.19
2018-02-05T08:56:06.599Z,64.24
2018-02-05T08:58:32.561Z,64.62
2018-02-05T09:00:58.490Z,64.09
2018-02-05T09:03:24.461Z,64.36
2018-02-05T09:05:50.386Z,64.65
2018-02-05T09:08:16.308Z,65.05
2018-02-05T09:10:42.277Z,64.81
2018-02-05T09:13:08.269Z,64.22
2018-02-05T09:15:34.237Z,63.73
2018-02-05T09:18:00.178Z,63.56
2018-02-05T09:20:26.121Z,62.85
2018-02-05T09:22:52.066Z,62.24
2018-02-05T09:25:17.996Z,61.13
2018-02-05T09:27:43.958Z,60.95
2018-02-05T09:30:09.928Z,60.37
2018-02-05T09:32:35.977Z,58.60
2018-02-05T09:35:01.898Z,58.38
2018-02-05T09:37:27.900Z,59.32
2018-02-05T09:39:53.898Z,58.62
2018-02-05T09:47:22.689Z,58.99
2018-02-05T09:49:48.627Z,58.45
2018-02-05T09:52:14.601Z,58.94
2018-02-05T09:54:40.529Z,58.89
2018-02-05T09:57:06.484Z,57.88
2018-02-05T09:59:32.415Z,58.17
2018-02-05T10:01:58.348Z,58.43
2018-02-05T10:04:24.306Z,57.60
2018-02-05T10:06:50.233Z,57.14
2018-02-05T10:09:16.264Z,56.59
2018-02-05T10:11:42.151Z,57.18
2018-02-05T10:14:08.075Z,56.91
2018-02-05T10:16:34.023Z,57.49
2018-02-05T10:18:59.957Z,57.07
2018-02-05T10:21:25.893Z,56.94
2018-02-05T10:23:51.833Z,56.91
2018-02-05T10:26:17.765Z,57.07
2018-02-05T10:28:43.706Z,56.66
2018-02-05T10:31:09.646Z,57.67
2018-02-05T10:33:35.599Z,57.98
2018-02-05T10:36:01.550Z,57.85
2018-02-05T10:38:27.501Z,57.50
2018-02-05T10:40:53.458Z,57.43
2018-02-05T10:43:19.395Z,57.67
2018-02-05T10:45:45.339Z,57.41
2018-02-05T10:48:11.290Z,57.03
2018-02-05T10:50:37.234Z,57.26
2018-02-05T10:53:03.172Z,56.86
2018-02-05T10:55:29.116Z,57.25
2018-02-05T11:00:26.512Z,57.45
2018-02-05T11:02:52.467Z,56.70
2018-02-05T11:05:18.424Z,56.02
2018-02-05T11:07:44.362Z,55.55
2018-02-05T11:10:10.310Z,56.13
2018-02-05T11:12:36.252Z,56.44
2018-02-05T11:15:02.190Z,56.21
2018-02-05T11:17:28.166Z,55.23
2018-02-05T11:19:54.095Z,55.10
2018-02-05T11:22:20.029Z,54.96
2018-02-05T11:24:45.969Z,55.62
2018-02-05T11:27:11.905Z,56.55
2018-02-05T11:29:37.867Z,57.11
2018-02-05T11:32:03.806Z,58.37
2018-02-05T11:34:29.762Z,59.52
2018-02-05T11:36:55.880Z,60.08
2018-02-05T11:39:21.833Z,59.36
2018-02-05T11:41:47.777Z,60.43
2018-02-05T11:44:13.710Z,60.83
2018-02-05T11:46:39.634Z,60.03
2018-02-05T11:49:05.561Z,59.91
2018-02-05T11:51:31.502Z,60.14
2018-02-05T11:53:57.442Z,59.45
2018-02-05T11:56:23.378Z,60.49
2018-02-05T11:58:49.367Z,60.43
2018-02-05T12:01:15.355Z,60.43
2018-02-05T12:03:41.295Z,60.02
2018-02-05T12:06:07.245Z,59.92
2018-02-05T12:08:33.183Z,59.54
2018-02-05T12:10:59.119Z,59.00
2018-02-05T12:13:25.048Z,58.61
2018-02-05T12:15:51.013Z,59.19
2018-02-05T12:18:16.963Z,59.14
2018-02-05T12:20:42.908Z,58.76
2018-02-05T12:23:08.867Z,57.88
2018-02-05T12:25:34.837Z,58.07
2018-02-05T12:28:00.788Z,57.59
2018-02-05T12:30:26.729Z,58.80
2018-02-05T12:32:52.646Z,57.97
2018-02-05T12:35:18.597Z,57.16
2018-02-05T12:37:44.543Z,57.70
2018-02-05T12:40:10.515Z,57.16
2018-02-05T12:42:36.465Z,56.96
2018-02-05T12:45:02.455Z,57.20
2018-02-05T12:47:28.402Z,57.24
2018-02-05T12:49:54.354Z,56.67
2018-02-05T12:52:20.330Z,55.64
2018-02-05T12:54:46.293Z,56.14
2018-02-05T12:57:12.275Z,56.05
2018-02-05T12:59:38.222Z,57.23
2018-02-05T13:02:04.189Z,56.18
2018-02-05T13:04:30.163Z,57.30
2018-02-05T13:06:56.095Z,57.61
2018-02-05T13:09:22.111Z,56.97
2018-02-05T13:11:48.007Z,55.98
2018-02-05T13:14:13.955Z,56.10
2018-02-05T13:16:39.893Z,55.91
2018-02-05T13:19:05.935Z,55.62
2018-02-05T13:21:32.020Z,55.27
2018-02-05T13:23:57.964Z,56.01
2018-02-05T13:26:24.153Z,55.51
2018-02-05T13:28:50.131Z,56.27
2018-02-05T13:31:16.073Z,55.51
2018-02-05T13:33:41.993Z,55.20
2018-02-05T13:36:07.928Z,55.05
2018-02-05T13:38:33.852Z,54.80
2018-02-05T13:40:59.849Z,54.23
2018-02-05T13:43:25.790Z,53.15
2018-02-05T13:45:51.752Z,53.59
2018-02-05T13:48:17.689Z,52.87
2018-02-05T13:50:43.661Z,53.02
2018-02-05T13:53:10.244Z,53.53
2018-02-05T13:55:37.212Z,53.69
2018-02-05T13:58:03.250Z,54.30
2018-02-05T14:00:29.293Z,54.75
2018-02-05T14:02:55.279Z,55.77
2018-02-05T14:05:21.428Z,55.19
2018-02-05T14:07:47.378Z,54.21
2018-02-05T14:10:13.358Z,54.95
2018-02-05T14:12:39.306Z,54.54
2018-02-05T14:15:05.278Z,54.92
2018-02-05T14:17:31.226Z,54.24
2018-02-05T14:19:57.376Z,53.46
2018-02-05T14:22:23.393Z,53.54
2018-02-05T14:24:49.384Z,53.27
2018-02-05T14:27:15.320Z,52.82
2018-02-05T14:29:41.254Z,52.82
2018-02-05T14:32:07.311Z,52.04
2018-02-05T14:34:33.279Z,51.32
2018-02-05T14:36:59.235Z,51.51
2018-02-05T14:39:25.175Z,52.09
2018-02-05T14:41:51.106Z,52.63
2018-02-05T14:44:17.078Z,52.13
2018-02-05T14:46:43.026Z,51.14
2018-02-05T14:49:08.974Z,52.51
2018-02-05T14:51:35.718Z,52.51
2018-02-05T14:54:01.683Z,50.98
2018-02-05T14:56:27.610Z,51.24
2018-02-05T14:58:53.582Z,51.77
2018-02-05T15:01:19.510Z,52.63
2018-02-05T15:03:45.454Z,52.45
2018-02-05T15:06:11.378Z,52.43
2018-02-05T15:08:37.350Z,52.75
2018-02-05T15:11:03.309Z,54.06
2018-02-05T15:13:29.238Z,54.20
2018-02-05T15:15:55.186Z,53.72
2018-02-05T15:18:21.140Z,53.33
2018-02-05T15:20:47.144Z,53.20
2018-02-05T15:23:13.098Z,52.72
2018-02-05T15:25:39.064Z,51.22
2018-02-05T15:28:05.016Z,51.52
2018-02-05T15:30:30.962Z,50.18
2018-02-05T15:32:56.934Z,49.81
2018-02-05T15:35:22.870Z,50.88
2018-02-05T15:37:48.801Z,50.73
2018-02-05T15:40:14.744Z,51.64
2018-02-05T15:42:40.696Z,52.41
2018-02-05T15:45:06.646Z,53.02
2018-02-05T15:47:32.696Z,52.02
2018-02-05T15:49:58.647Z,52.08
2018-02-05T15:52:24.663Z,53.00
2018-02-05T15:54:50.635Z,52.39
2018-02-05T15:57:16.668Z,51.57
2018-02-05T15:59:42.601Z,51.41
2018-02-05T16:02:08.560Z,50.69
2018-02-05T16:04:34.501Z,51.24
2018-02-05T16:07:00.478Z,50.63
2018-02-05T16:16:10.355Z,53.20
2018-02-05T16:18:36.432Z,52.86
2018-02-05T16:21:02.368Z,53.28
2018-02-05T16:23:28.308Z,53.94
2018-02-05T16:25:54.293Z,54.42
2018-02-05T16:28:20.218Z,54.83
2018-02-05T16:30:46.163Z,54.57
2018-02-05T16:33:12.101Z,54.86
2018-02-05T16:35:38.057Z,55.09
2018-02-05T16:38:04.010Z,55.01
2018-02-05T16:40:29.974Z,54.55
2018-02-05T16:42:55.915Z,54.80
2018-02-05T16:45:21.926Z,55.26
2018-02-05T16:47:48.233Z,55.29
2018-02-05T16:50:14.194Z,55.37
2018-02-05T16:52:40.211Z,55.41
2018-02-05T16:55:06.244Z,55.14
2018-02-05T16:57:32.208Z,54.78
2018-02-05T16:59:58.198Z,55.13
2018-02-05T17:02:24.218Z,55.49
2018-02-05T17:04:50.192Z,54.66
2018-02-05T17:07:16.170Z,55.40
2018-02-05T17:09:42.152Z,55.40
2018-02-05T17:12:08.107Z,54.52
2018-02-05T17:14:34.056Z,53.98
2018-02-05T17:17:00.027Z,54.25
2018-02-05T17:19:25.985Z,54.42
2018-02-05T17:21:51.970Z,54.37
2018-02-05T17:24:17.984Z,54.70
2018-02-05T17:26:43.957Z,54.92
2018-02-05T17:29:09.892Z,54.69
2018-02-05T17:31:35.878Z,54.14
2018-02-05T17:34:01.832Z,54.29
2018-02-05T17:36:27.796Z,54.85
2018-02-05T17:38:53.852Z,53.94
2018-02-05T17:41:19.800Z,53.60
2018-02-05T17:43:45.972Z,54.23
2018-02-05T17:46:12.044Z,54.55
2018-02-05T17:48:38.035Z,54.04
2018-02-05T17:51:04.069Z,53.68
2018-02-05T17:53:30.030Z,53.30
2018-02-05T17:55:55.986Z,52.37
2018-02-05T17:58:21.949Z,52.53
2018-02-05T18:00:47.891Z,52.42
2018-02-05T18:03:13.862Z,52.36
2018-02-05T18:05:39.898Z,52.19
2018-02-05T18:08:05.857Z,51.78
2018-02-05T18:10:31.848Z,51.84
2018-02-05T18:12:57.800Z,51.88
2018-02-05T18:15:23.740Z,51.60
2018-02-05T18:17:49.684Z,50.60
2018-02-05T18:20:15.636Z,51.17
2018-02-05T18:22:41.586Z,50.72
2018-02-05T18:25:07.548Z,50.18
2018-02-05T18:27:33.488Z,50.60
2018-02-05T18:29:59.421Z,50.62
2018-02-05T18:32:25.476Z,50.60
2018-02-05T18:37:23.775Z,50.21
2018-02-05T18:39:49.903Z,50.33
2018-02-05T18:42:15.868Z,49.88
2018-02-05T18:44:41.847Z,49.74
2018-02-05T18:47:07.808Z,50.53
2018-02-05T18:49:33.773Z,50.19
2018-02-05T18:51:59.807Z,50.57
2018-02-05T18:54:25.816Z,50.74
2018-02-05T18:56:51.771Z,51.11
2018-02-05T18:59:17.724Z,51.12
2018-02-05T19:01:43.653Z,51.58
2018-02-05T19:04:09.613Z,51.08
2018-02-05T19:06:35.544Z,50.79
2018-02-05T19:09:01.557Z,49.98
2018-02-05T19:11:27.493Z,50.11
2018-02-05T19:13:53.439Z,51.05
2018-02-05T19:16:19.380Z,50.89
2018-02-05T19:18:45.326Z,50.04
2018-02-05T19:21:11.303Z,50.37
2018-02-05T19:23:37.282Z,50.69
2018-02-05T19:26:03.234Z,51.22
2018-02-05T19:28:29.168Z,50.18
2018-02-05T19:30:55.134Z,50.13
2018-02-05T19:33:21.089Z,50.81
2018-02-05T19:35:47.038Z,50.32
2018-02-05T19:38:13.082Z,50.43
2018-02-05T19:40:39.044Z,51.89
2018-02-05T19:43:04.987Z,51.14
2018-02-05T19:45:30.928Z,51.46
2018-02-05T19:47:56.866Z,51.24
2018-02-05T19:50:22.816Z,57.55
2018-02-05T19:52:48.760Z,56.92
2018-02-05T19:55:14.777Z,52.33
2018-02-05T19:57:40.731Z,51.67
2018-02-05T20:00:07.099Z,51.94
2018-02-05T20:02:33.072Z,52.06
2018-02-05T20:04:59.009Z,51.74
2018-02-05T20:07:24.975Z,52.02
2018-02-05T20:09:50.914Z,53.42
2018-02-05T20:12:16.870Z,52.09
2018-02-05T20:14:42.820Z,53.44
2018-02-05T20:17:08.818Z,53.08
2018-02-05T20:19:34.834Z,53.23
2018-02-05T20:22:00.810Z,52.76
2018-02-05T20:24:29.037Z,53.82
2018-02-05T20:26:55.029Z,52.51
2018-02-05T20:29:20.983Z,53.83
2018-02-05T20:31:46.932Z,55.93
2018-02-05T20:34:12.879Z,55.75
2018-02-05T20:36:38.832Z,55.62
2018-02-05T20:39:04.792Z,56.02
2018-02-05T20:41:30.760Z,56.39
2018-02-05T20:43:56.724Z,55.82
2018-02-05T20:46:22.667Z,54.03
2018-02-05T20:48:48.623Z,54.69
2018-02-05T20:51:14.583Z,55.40
2018-02-05T20:53:40.540Z,54.56
2018-02-05T20:56:06.475Z,55.15
2018-02-05T20:58:32.546Z,55.76
2018-02-05T21:00:58.519Z,55.65
2018-02-05T21:03:24.500Z,54.57
2018-02-05T21:05:50.455Z,55.92
2018-02-05T21:08:16.445Z,57.76
2018-02-05T21:10:42.409Z,56.94
2018-02-05T21:13:08.361Z,57.02
2018-02-05T21:15:34.413Z,56.20
2018-02-05T21:18:00.347Z,56.84
2018-02-05T21:20:26.362Z,57.82
2018-02-05T21:22:52.295Z,58.49
2018-02-05T21:25:18.251Z,58.36
2018-02-05T21:27:44.217Z,57.57
2018-02-05T21:30:10.191Z,57.83
2018-02-05T21:32:38.129Z,57.73
2018-02-05T21:35:04.149Z,53.43
2018-02-05T21:37:30.130Z,51.47
2018-02-05T21:39:56.103Z,53.70
2018-02-05T21:42:22.051Z,54.29
2018-02-05T21:44:47.995Z,55.58
2018-02-05T21:47:14.272Z,56.63
2018-02-05T21:49:40.218Z,56.75
2018-02-05T21:52:06.163Z,56.03
2018-02-05T21:54:32.093Z,54.70
2018-02-05T21:56:58.036Z,54.75
2018-02-05T21:59:24.024Z,55.26
2018-02-05T22:01:49.975Z,55.65
2018-02-05T22:04:15.922Z,55.86
2018-02-05T22:09:14.262Z,57.23
2018-02-05T22:14:11.521Z,56.89
2018-02-05T22:16:37.473Z,56.40
2018-02-05T22:19:03.413Z,56.74
2018-02-05T22:24:00.738Z,56.02
2018-02-05T22:26:26.688Z,56.75
2018-02-05T22:33:55.230Z,57.35
2018-02-05T22:36:21.194Z,56.19
2018-02-05T22:38:47.202Z,55.94
2018-02-05T22:41:13.149Z,56.07
2018-02-05T22:43:39.124Z,57.49
2018-02-05T22:46:05.078Z,57.51
2018-02-05T22:48:31.018Z,58.13
2018-02-05T22:50:57.002Z,58.49
2018-02-05T22:53:22.938Z,58.14
2018-02-05T22:55:48.872Z,58.74
2018-02-05T22:58:14.824Z,59.16
2018-02-05T23:00:40.764Z,58.83
2018-02-05T23:03:06.712Z,58.67
2018-02-05T23:05:32.670Z,58.61
2018-02-05T23:07:58.660Z,58.77
2018-02-05T23:10:24.620Z,55.76
2018-02-05T23:12:50.556Z,56.95
2018-02-05T23:15:16.518Z,58.56
2018-02-05T23:17:42.530Z,59.44
2018-02-05T23:20:08.472Z,59.72
2018-02-05T23:22:34.464Z,58.39
2018-02-05T23:25:00.400Z,58.67
2018-02-05T23:27:26.348Z,59.97
2018-02-05T23:29:52.316Z,60.23
2018-02-05T23:32:18.258Z,61.15
2018-02-05T23:34:44.240Z,61.51
2018-02-05T23:37:10.182Z,61.21
2018-02-05T23:39:36.131Z,60.17
2018-02-05T23:42:02.089Z,57.79
2018-02-05T23:44:28.044Z,57.57
2018-02-05T23:46:54.038Z,59.78
2018-02-05T23:49:19.958Z,60.19
2018-02-05T23:51:45.920Z,60.06
2018-02-05T23:54:11.864Z,59.48
2018-02-05T23:56:37.858Z,60.17
2018-02-05T23:59:03.801Z,59.73
